sensor_id;sensor_type;location;lat;lon;timestamp;P1;durP1;ratioP1;P2;durP2;ratioP2
26277;SDS011;14000;52.056;8.510;2023-12-20T00:00:24;26.50;;;13.13;;
26277;SDS011;14000;52.056;8.510;2023-12-20T00:02:49;28.00;;;12.03;;
26277;SDS011;14000;52.056;8.510;2023-12-20T00:05:15;24.57;;;10.63;;
26277;SDS011;14000;52.056;8.510;2023-12-20T00:07:40;25.47;;;9.67;;
26277;SDS011;14000;52.056;8.510;2023-12-20T00:10:06;24.93;;;9.40;;
26277;SDS011;14000;52.056;8.510;2023-12-20T00:12:32;20.70;;;8.30;;
26277;SDS011;14000;52.056;8.510;2023-12-20T00:14:57;22.67;;;8.50;;
26277;SDS011;14000;52.056;8.510;2023-12-20T00:17:23;19.07;;;7.40;;
26277;SDS011;14000;52.056;8.510;2023-12-20T00:19:49;22.50;;;8.30;;
26277;SDS011;14000;52.056;8.510;2023-12-20T00:22:14;19.70;;;8.17;;
26277;SDS011;14000;52.056;8.510;2023-12-20T00:24:40;21.83;;;9.27;;
26277;SDS011;14000;52.056;8.510;2023-12-20T00:27:05;22.73;;;9.07;;
26277;SDS011;14000;52.056;8.510;2023-12-20T00:29:31;20.00;;;8.83;;
26277;SDS011;14000;52.056;8.510;2023-12-20T00:31:56;27.63;;;9.90;;
26277;SDS011;14000;52.056;8.510;2023-12-20T00:34:22;25.43;;;9.70;;
26277;SDS011;14000;52.056;8.510;2023-12-20T00:36:48;25.37;;;7.80;;
26277;SDS011;14000;52.056;8.510;2023-12-20T00:39:13;19.87;;;7.87;;
26277;SDS011;14000;52.056;8.510;2023-12-20T00:41:39;20.67;;;7.93;;
26277;SDS011;14000;52.056;8.510;2023-12-20T00:44:04;19.57;;;7.83;;
26277;SDS011;14000;52.056;8.510;2023-12-20T00:46:30;21.10;;;7.27;;
26277;SDS011;14000;52.056;8.510;2023-12-20T00:48:55;20.03;;;7.63;;
26277;SDS011;14000;52.056;8.510;2023-12-20T00:51:21;20.53;;;9.13;;
26277;SDS011;14000;52.056;8.510;2023-12-20T00:53:47;20.13;;;7.20;;
26277;SDS011;14000;52.056;8.510;2023-12-20T00:56:15;22.27;;;8.40;;
26277;SDS011;14000;52.056;8.510;2023-12-20T00:58:40;19.20;;;7.67;;
26277;SDS011;14000;52.056;8.510;2023-12-20T01:01:06;19.27;;;7.33;;
26277;SDS011;14000;52.056;8.510;2023-12-20T01:03:32;18.37;;;6.27;;
26277;SDS011;14000;52.056;8.510;2023-12-20T01:05:57;18.73;;;6.97;;
26277;SDS011;14000;52.056;8.510;2023-12-20T01:08:23;19.63;;;6.23;;
26277;SDS011;14000;52.056;8.510;2023-12-20T01:10:48;19.80;;;6.70;;
26277;SDS011;14000;52.056;8.510;2023-12-20T01:13:14;17.23;;;6.07;;
26277;SDS011;14000;52.056;8.510;2023-12-20T01:15:39;20.03;;;6.30;;
26277;SDS011;14000;52.056;8.510;2023-12-20T01:18:05;19.27;;;6.17;;
26277;SDS011;14000;52.056;8.510;2023-12-20T01:20:30;17.23;;;6.30;;
26277;SDS011;14000;52.056;8.510;2023-12-20T01:22:56;20.37;;;5.87;;
26277;SDS011;14000;52.056;8.510;2023-12-20T01:25:22;18.50;;;6.40;;
26277;SDS011;14000;52.056;8.510;2023-12-20T01:27:47;17.43;;;6.20;;
26277;SDS011;14000;52.056;8.510;2023-12-20T01:30:14;23.70;;;6.50;;
26277;SDS011;14000;52.056;8.510;2023-12-20T01:32:40;18.17;;;6.10;;
26277;SDS011;14000;52.056;8.510;2023-12-20T01:35:05;17.30;;;6.00;;
26277;SDS011;14000;52.056;8.510;2023-12-20T01:37:31;19.83;;;5.93;;
26277;SDS011;14000;52.056;8.510;2023-12-20T01:39:57;20.47;;;6.20;;
26277;SDS011;14000;52.056;8.510;2023-12-20T01:42:23;17.67;;;5.47;;
26277;SDS011;14000;52.056;8.510;2023-12-20T01:44:49;16.13;;;5.23;;
26277;SDS011;14000;52.056;8.510;2023-12-20T01:47:14;19.40;;;5.50;;
26277;SDS011;14000;52.056;8.510;2023-12-20T01:49:41;18.83;;;5.50;;
26277;SDS011;14000;52.056;8.510;2023-12-20T01:52:07;18.27;;;4.90;;
26277;SDS011;14000;52.056;8.510;2023-12-20T01:54:34;17.60;;;5.20;;
26277;SDS011;14000;52.056;8.510;2023-12-20T01:57:00;17.37;;;4.93;;
26277;SDS011;14000;52.056;8.510;2023-12-20T01:59:27;19.87;;;5.97;;
26277;SDS011;14000;52.056;8.510;2023-12-20T02:01:54;19.57;;;5.23;;
26277;SDS011;14000;52.056;8.510;2023-12-20T02:04:20;25.13;;;5.67;;
26277;SDS011;14000;52.056;8.510;2023-12-20T02:06:46;15.50;;;5.07;;
26277;SDS011;14000;52.056;8.510;2023-12-20T02:09:12;19.13;;;4.70;;
26277;SDS011;14000;52.056;8.510;2023-12-20T02:11:39;17.97;;;5.23;;
26277;SDS011;14000;52.056;8.510;2023-12-20T02:14:05;16.20;;;5.30;;
26277;SDS011;14000;52.056;8.510;2023-12-20T02:16:31;20.20;;;5.70;;
26277;SDS011;14000;52.056;8.510;2023-12-20T02:18:57;18.43;;;5.67;;
26277;SDS011;14000;52.056;8.510;2023-12-20T02:21:31;18.80;;;5.23;;
26277;SDS011;14000;52.056;8.510;2023-12-20T02:23:57;18.20;;;5.60;;
26277;SDS011;14000;52.056;8.510;2023-12-20T02:26:23;16.43;;;4.97;;
26277;SDS011;14000;52.056;8.510;2023-12-20T02:28:49;13.93;;;4.80;;
26277;SDS011;14000;52.056;8.510;2023-12-20T02:31:14;18.23;;;5.13;;
26277;SDS011;14000;52.056;8.510;2023-12-20T02:33:40;15.47;;;4.60;;
26277;SDS011;14000;52.056;8.510;2023-12-20T02:36:07;17.60;;;4.80;;
26277;SDS011;14000;52.056;8.510;2023-12-20T02:38:32;19.03;;;4.47;;
26277;SDS011;14000;52.056;8.510;2023-12-20T02:40:59;25.63;;;5.13;;
26277;SDS011;14000;52.056;8.510;2023-12-20T02:43:24;19.27;;;5.30;;
26277;SDS011;14000;52.056;8.510;2023-12-20T02:45:50;19.00;;;5.07;;
26277;SDS011;14000;52.056;8.510;2023-12-20T02:48:16;19.50;;;5.20;;
26277;SDS011;14000;52.056;8.510;2023-12-20T02:50:41;17.13;;;6.20;;
26277;SDS011;14000;52.056;8.510;2023-12-20T02:53:07;21.17;;;5.57;;
26277;SDS011;14000;52.056;8.510;2023-12-20T02:55:32;15.27;;;5.07;;
26277;SDS011;14000;52.056;8.510;2023-12-20T02:57:58;17.33;;;5.90;;
26277;SDS011;14000;52.056;8.510;2023-12-20T03:00:24;23.60;;;5.33;;
26277;SDS011;14000;52.056;8.510;2023-12-20T03:02:49;23.90;;;6.00;;
26277;SDS011;14000;52.056;8.510;2023-12-20T03:05:15;17.20;;;5.80;;
26277;SDS011;14000;52.056;8.510;2023-12-20T03:07:40;20.60;;;6.33;;
26277;SDS011;14000;52.056;8.510;2023-12-20T03:10:06;20.93;;;5.57;;
26277;SDS011;14000;52.056;8.510;2023-12-20T03:12:33;20.90;;;5.87;;
26277;SDS011;14000;52.056;8.510;2023-12-20T03:14:58;23.27;;;7.10;;
26277;SDS011;14000;52.056;8.510;2023-12-20T03:17:24;22.67;;;6.27;;
26277;SDS011;14000;52.056;8.510;2023-12-20T03:19:50;19.27;;;6.37;;
26277;SDS011;14000;52.056;8.510;2023-12-20T03:22:15;19.83;;;7.30;;
26277;SDS011;14000;52.056;8.510;2023-12-20T03:24:41;21.83;;;7.27;;
26277;SDS011;14000;52.056;8.510;2023-12-20T03:27:06;22.33;;;7.03;;
26277;SDS011;14000;52.056;8.510;2023-12-20T03:29:32;23.33;;;7.67;;
26277;SDS011;14000;52.056;8.510;2023-12-20T03:31:57;22.33;;;8.00;;
26277;SDS011;14000;52.056;8.510;2023-12-20T03:34:23;24.30;;;7.67;;
26277;SDS011;14000;52.056;8.510;2023-12-20T03:36:48;22.70;;;8.43;;
26277;SDS011;14000;52.056;8.510;2023-12-20T03:39:14;22.97;;;8.07;;
26277;SDS011;14000;52.056;8.510;2023-12-20T03:41:39;22.67;;;7.90;;
26277;SDS011;14000;52.056;8.510;2023-12-20T03:44:05;24.13;;;8.23;;
26277;SDS011;14000;52.056;8.510;2023-12-20T03:46:31;27.13;;;9.53;;
26277;SDS011;14000;52.056;8.510;2023-12-20T03:48:56;25.93;;;8.77;;
26277;SDS011;14000;52.056;8.510;2023-12-20T03:51:22;23.87;;;8.80;;
26277;SDS011;14000;52.056;8.510;2023-12-20T03:53:47;28.53;;;9.10;;
26277;SDS011;14000;52.056;8.510;2023-12-20T03:56:13;27.83;;;9.20;;
26277;SDS011;14000;52.056;8.510;2023-12-20T03:58:38;26.20;;;9.27;;
26277;SDS011;14000;52.056;8.510;2023-12-20T04:01:08;27.80;;;9.67;;
26277;SDS011;14000;52.056;8.510;2023-12-20T04:03:35;29.20;;;9.17;;
26277;SDS011;14000;52.056;8.510;2023-12-20T04:06:01;28.00;;;9.27;;
26277;SDS011;14000;52.056;8.510;2023-12-20T04:08:26;28.90;;;8.77;;
26277;SDS011;14000;52.056;8.510;2023-12-20T04:10:52;28.13;;;9.40;;
26277;SDS011;14000;52.056;8.510;2023-12-20T04:13:17;31.47;;;8.50;;
26277;SDS011;14000;52.056;8.510;2023-12-20T04:15:43;26.27;;;8.77;;
26277;SDS011;14000;52.056;8.510;2023-12-20T04:18:09;25.83;;;8.97;;
26277;SDS011;14000;52.056;8.510;2023-12-20T04:20:35;21.63;;;7.97;;
26277;SDS011;14000;52.056;8.510;2023-12-20T04:23:00;24.33;;;8.70;;
26277;SDS011;14000;52.056;8.510;2023-12-20T04:25:26;23.60;;;8.67;;
26277;SDS011;14000;52.056;8.510;2023-12-20T04:27:51;26.67;;;9.33;;
26277;SDS011;14000;52.056;8.510;2023-12-20T04:30:17;24.03;;;7.93;;
26277;SDS011;14000;52.056;8.510;2023-12-20T04:32:42;20.67;;;7.90;;
26277;SDS011;14000;52.056;8.510;2023-12-20T04:35:08;29.93;;;9.20;;
26277;SDS011;14000;52.056;8.510;2023-12-20T04:37:33;23.90;;;8.27;;
26277;SDS011;14000;52.056;8.510;2023-12-20T04:39:59;28.87;;;8.47;;
26277;SDS011;14000;52.056;8.510;2023-12-20T04:42:25;29.97;;;7.97;;
26277;SDS011;14000;52.056;8.510;2023-12-20T04:44:50;29.83;;;8.10;;
26277;SDS011;14000;52.056;8.510;2023-12-20T04:47:16;24.00;;;7.90;;
26277;SDS011;14000;52.056;8.510;2023-12-20T04:49:41;24.83;;;7.53;;
26277;SDS011;14000;52.056;8.510;2023-12-20T04:52:07;24.70;;;7.73;;
26277;SDS011;14000;52.056;8.510;2023-12-20T04:54:32;29.30;;;7.37;;
26277;SDS011;14000;52.056;8.510;2023-12-20T04:56:58;23.60;;;7.80;;
26277;SDS011;14000;52.056;8.510;2023-12-20T04:59:23;23.73;;;8.10;;
26277;SDS011;14000;52.056;8.510;2023-12-20T05:01:49;26.53;;;7.80;;
26277;SDS011;14000;52.056;8.510;2023-12-20T05:04:14;30.33;;;7.73;;
26277;SDS011;14000;52.056;8.510;2023-12-20T05:06:40;24.03;;;6.93;;
26277;SDS011;14000;52.056;8.510;2023-12-20T05:09:06;31.93;;;8.30;;
26277;SDS011;14000;52.056;8.510;2023-12-20T05:11:31;27.63;;;7.03;;
26277;SDS011;14000;52.056;8.510;2023-12-20T05:13:57;31.03;;;7.60;;
26277;SDS011;14000;52.056;8.510;2023-12-20T05:16:22;24.37;;;6.93;;
26277;SDS011;14000;52.056;8.510;2023-12-20T05:18:48;24.33;;;7.43;;
26277;SDS011;14000;52.056;8.510;2023-12-20T05:21:17;28.47;;;7.37;;
26277;SDS011;14000;52.056;8.510;2023-12-20T05:23:43;26.43;;;8.07;;
26277;SDS011;14000;52.056;8.510;2023-12-20T05:26:09;28.80;;;7.07;;
26277;SDS011;14000;52.056;8.510;2023-12-20T05:28:34;31.10;;;7.37;;
26277;SDS011;14000;52.056;8.510;2023-12-20T05:31:00;28.87;;;7.53;;
26277;SDS011;14000;52.056;8.510;2023-12-20T05:33:25;30.03;;;8.50;;
26277;SDS011;14000;52.056;8.510;2023-12-20T05:35:51;25.23;;;6.70;;
26277;SDS011;14000;52.056;8.510;2023-12-20T05:38:16;29.53;;;7.47;;
26277;SDS011;14000;52.056;8.510;2023-12-20T05:40:42;28.27;;;7.17;;
26277;SDS011;14000;52.056;8.510;2023-12-20T05:43:08;29.20;;;7.63;;
26277;SDS011;14000;52.056;8.510;2023-12-20T05:45:33;29.37;;;7.70;;
26277;SDS011;14000;52.056;8.510;2023-12-20T05:47:59;30.90;;;8.77;;
26277;SDS011;14000;52.056;8.510;2023-12-20T05:50:25;30.57;;;8.47;;
26277;SDS011;14000;52.056;8.510;2023-12-20T05:52:50;33.27;;;9.53;;
26277;SDS011;14000;52.056;8.510;2023-12-20T05:55:16;24.87;;;7.70;;
26277;SDS011;14000;52.056;8.510;2023-12-20T05:57:41;25.30;;;7.00;;
26277;SDS011;14000;52.056;8.510;2023-12-20T06:00:08;27.27;;;7.03;;
26277;SDS011;14000;52.056;8.510;2023-12-20T06:02:34;29.90;;;7.63;;
26277;SDS011;14000;52.056;8.510;2023-12-20T06:05:01;29.03;;;7.67;;
26277;SDS011;14000;52.056;8.510;2023-12-20T06:07:29;30.03;;;7.60;;
26277;SDS011;14000;52.056;8.510;2023-12-20T06:09:54;27.80;;;8.10;;
26277;SDS011;14000;52.056;8.510;2023-12-20T06:12:20;25.70;;;8.17;;
26277;SDS011;14000;52.056;8.510;2023-12-20T06:14:45;26.37;;;8.30;;
26277;SDS011;14000;52.056;8.510;2023-12-20T06:17:11;30.80;;;8.57;;
26277;SDS011;14000;52.056;8.510;2023-12-20T06:19:36;29.57;;;8.33;;
26277;SDS011;14000;52.056;8.510;2023-12-20T06:22:02;33.53;;;9.00;;
26277;SDS011;14000;52.056;8.510;2023-12-20T06:24:28;38.53;;;8.80;;
26277;SDS011;14000;52.056;8.510;2023-12-20T06:26:54;32.17;;;7.77;;
26277;SDS011;14000;52.056;8.510;2023-12-20T06:29:20;35.37;;;8.77;;
26277;SDS011;14000;52.056;8.510;2023-12-20T06:31:46;24.63;;;7.77;;
26277;SDS011;14000;52.056;8.510;2023-12-20T06:34:11;27.50;;;7.70;;
26277;SDS011;14000;52.056;8.510;2023-12-20T06:36:37;28.53;;;8.67;;
26277;SDS011;14000;52.056;8.510;2023-12-20T06:39:02;32.17;;;8.87;;
26277;SDS011;14000;52.056;8.510;2023-12-20T06:41:29;23.67;;;7.67;;
26277;SDS011;14000;52.056;8.510;2023-12-20T06:43:55;26.80;;;7.70;;
26277;SDS011;14000;52.056;8.510;2023-12-20T06:46:20;26.33;;;7.63;;
26277;SDS011;14000;52.056;8.510;2023-12-20T06:48:46;25.07;;;7.67;;
26277;SDS011;14000;52.056;8.510;2023-12-20T06:51:14;27.90;;;8.07;;
26277;SDS011;14000;52.056;8.510;2023-12-20T06:53:40;28.57;;;8.57;;
26277;SDS011;14000;52.056;8.510;2023-12-20T06:56:06;27.67;;;8.27;;
26277;SDS011;14000;52.056;8.510;2023-12-20T06:58:32;32.63;;;8.27;;
26277;SDS011;14000;52.056;8.510;2023-12-20T07:00:58;29.17;;;8.90;;
26277;SDS011;14000;52.056;8.510;2023-12-20T07:03:23;31.70;;;7.80;;
26277;SDS011;14000;52.056;8.510;2023-12-20T07:05:49;31.40;;;10.10;;
26277;SDS011;14000;52.056;8.510;2023-12-20T07:08:14;30.13;;;9.77;;
26277;SDS011;14000;52.056;8.510;2023-12-20T07:10:40;31.03;;;9.33;;
26277;SDS011;14000;52.056;8.510;2023-12-20T07:13:06;32.30;;;8.80;;
26277;SDS011;14000;52.056;8.510;2023-12-20T07:15:33;24.93;;;8.43;;
26277;SDS011;14000;52.056;8.510;2023-12-20T07:17:58;33.10;;;8.90;;
26277;SDS011;14000;52.056;8.510;2023-12-20T07:20:25;36.80;;;8.57;;
26277;SDS011;14000;52.056;8.510;2023-12-20T07:22:51;34.30;;;9.00;;
26277;SDS011;14000;52.056;8.510;2023-12-20T07:25:16;27.27;;;7.73;;
26277;SDS011;14000;52.056;8.510;2023-12-20T07:27:42;25.10;;;7.90;;
26277;SDS011;14000;52.056;8.510;2023-12-20T07:30:08;27.67;;;8.27;;
26277;SDS011;14000;52.056;8.510;2023-12-20T07:32:34;28.47;;;8.00;;
26277;SDS011;14000;52.056;8.510;2023-12-20T07:35:00;27.83;;;7.30;;
26277;SDS011;14000;52.056;8.510;2023-12-20T07:37:25;33.07;;;7.57;;
26277;SDS011;14000;52.056;8.510;2023-12-20T07:39:51;27.47;;;7.87;;
26277;SDS011;14000;52.056;8.510;2023-12-20T07:42:16;26.67;;;7.17;;
26277;SDS011;14000;52.056;8.510;2023-12-20T07:44:42;34.03;;;7.60;;
26277;SDS011;14000;52.056;8.510;2023-12-20T07:47:07;28.30;;;7.20;;
26277;SDS011;14000;52.056;8.510;2023-12-20T07:49:33;26.27;;;7.93;;
26277;SDS011;14000;52.056;8.510;2023-12-20T07:51:59;32.10;;;7.03;;
26277;SDS011;14000;52.056;8.510;2023-12-20T07:54:24;37.47;;;7.37;;
26277;SDS011;14000;52.056;8.510;2023-12-20T07:56:50;26.00;;;6.57;;
26277;SDS011;14000;52.056;8.510;2023-12-20T07:59:16;33.10;;;7.10;;
26277;SDS011;14000;52.056;8.510;2023-12-20T08:01:41;29.77;;;6.37;;
26277;SDS011;14000;52.056;8.510;2023-12-20T08:04:07;24.03;;;6.47;;
26277;SDS011;14000;52.056;8.510;2023-12-20T08:06:33;26.10;;;5.73;;
26277;SDS011;14000;52.056;8.510;2023-12-20T08:08:59;29.87;;;6.47;;
26277;SDS011;14000;52.056;8.510;2023-12-20T08:11:25;44.87;;;7.97;;
26277;SDS011;14000;52.056;8.510;2023-12-20T08:13:50;26.03;;;5.80;;
26277;SDS011;14000;52.056;8.510;2023-12-20T08:16:16;27.23;;;6.60;;
26277;SDS011;14000;52.056;8.510;2023-12-20T08:18:42;29.47;;;6.70;;
26277;SDS011;14000;52.056;8.510;2023-12-20T08:21:08;26.17;;;6.70;;
26277;SDS011;14000;52.056;8.510;2023-12-20T08:23:34;23.73;;;6.33;;
26277;SDS011;14000;52.056;8.510;2023-12-20T08:26:03;20.03;;;6.40;;
26277;SDS011;14000;52.056;8.510;2023-12-20T08:28:30;29.47;;;6.00;;
26277;SDS011;14000;52.056;8.510;2023-12-20T08:30:56;28.87;;;7.40;;
26277;SDS011;14000;52.056;8.510;2023-12-20T08:33:22;25.03;;;6.10;;
26277;SDS011;14000;52.056;8.510;2023-12-20T08:35:47;30.27;;;6.80;;
26277;SDS011;14000;52.056;8.510;2023-12-20T08:38:13;29.67;;;6.70;;
26277;SDS011;14000;52.056;8.510;2023-12-20T08:40:39;23.27;;;5.73;;
26277;SDS011;14000;52.056;8.510;2023-12-20T08:43:04;25.87;;;6.03;;
26277;SDS011;14000;52.056;8.510;2023-12-20T08:45:30;28.23;;;6.67;;
26277;SDS011;14000;52.056;8.510;2023-12-20T08:47:56;31.00;;;7.20;;
26277;SDS011;14000;52.056;8.510;2023-12-20T08:50:21;27.90;;;6.90;;
26277;SDS011;14000;52.056;8.510;2023-12-20T08:52:47;26.63;;;6.73;;
26277;SDS011;14000;52.056;8.510;2023-12-20T08:55:13;28.37;;;6.50;;
26277;SDS011;14000;52.056;8.510;2023-12-20T08:57:39;33.67;;;7.70;;
26277;SDS011;14000;52.056;8.510;2023-12-20T09:00:05;29.73;;;7.47;;
26277;SDS011;14000;52.056;8.510;2023-12-20T09:02:32;29.53;;;7.20;;
26277;SDS011;14000;52.056;8.510;2023-12-20T09:05:00;29.03;;;7.70;;
26277;SDS011;14000;52.056;8.510;2023-12-20T09:07:27;25.17;;;7.90;;
26277;SDS011;14000;52.056;8.510;2023-12-20T09:09:55;29.67;;;7.97;;
26277;SDS011;14000;52.056;8.510;2023-12-20T09:12:21;36.63;;;9.03;;
26277;SDS011;14000;52.056;8.510;2023-12-20T09:14:47;39.57;;;8.83;;
26277;SDS011;14000;52.056;8.510;2023-12-20T09:17:13;24.53;;;7.80;;
26277;SDS011;14000;52.056;8.510;2023-12-20T09:19:41;33.87;;;8.37;;
26277;SDS011;14000;52.056;8.510;2023-12-20T09:22:06;34.97;;;8.80;;
26277;SDS011;14000;52.056;8.510;2023-12-20T09:24:32;28.47;;;8.40;;
26277;SDS011;14000;52.056;8.510;2023-12-20T09:26:58;29.47;;;8.67;;
26277;SDS011;14000;52.056;8.510;2023-12-20T09:29:23;27.43;;;8.43;;
26277;SDS011;14000;52.056;8.510;2023-12-20T09:31:49;33.37;;;8.93;;
26277;SDS011;14000;52.056;8.510;2023-12-20T09:34:15;32.60;;;9.37;;
26277;SDS011;14000;52.056;8.510;2023-12-20T09:36:42;32.50;;;8.90;;
26277;SDS011;14000;52.056;8.510;2023-12-20T09:39:12;38.17;;;9.73;;
26277;SDS011;14000;52.056;8.510;2023-12-20T09:41:45;30.07;;;9.53;;
26277;SDS011;14000;52.056;8.510;2023-12-20T09:44:21;28.23;;;9.67;;
26277;SDS011;14000;52.056;8.510;2023-12-20T09:46:49;31.33;;;9.73;;
26277;SDS011;14000;52.056;8.510;2023-12-20T09:49:16;24.60;;;9.80;;
26277;SDS011;14000;52.056;8.510;2023-12-20T09:51:43;31.83;;;9.87;;
26277;SDS011;14000;52.056;8.510;2023-12-20T09:54:11;36.53;;;10.30;;
26277;SDS011;14000;52.056;8.510;2023-12-20T09:56:39;35.73;;;9.67;;
26277;SDS011;14000;52.056;8.510;2023-12-20T09:59:04;31.17;;;11.03;;
26277;SDS011;14000;52.056;8.510;2023-12-20T10:01:30;33.67;;;9.23;;
26277;SDS011;14000;52.056;8.510;2023-12-20T10:03:56;34.83;;;9.77;;
26277;SDS011;14000;52.056;8.510;2023-12-20T10:06:25;44.87;;;10.77;;
26277;SDS011;14000;52.056;8.510;2023-12-20T10:08:50;32.87;;;9.30;;
26277;SDS011;14000;52.056;8.510;2023-12-20T10:11:16;29.50;;;9.70;;
26277;SDS011;14000;52.056;8.510;2023-12-20T10:13:42;32.77;;;9.53;;
26277;SDS011;14000;52.056;8.510;2023-12-20T10:16:08;30.67;;;9.23;;
26277;SDS011;14000;52.056;8.510;2023-12-20T10:18:34;29.20;;;8.43;;
26277;SDS011;14000;52.056;8.510;2023-12-20T10:21:02;34.23;;;8.53;;
26277;SDS011;14000;52.056;8.510;2023-12-20T10:23:28;30.37;;;8.80;;
26277;SDS011;14000;52.056;8.510;2023-12-20T10:25:56;27.67;;;9.10;;
26277;SDS011;14000;52.056;8.510;2023-12-20T10:28:23;37.23;;;9.70;;
26277;SDS011;14000;52.056;8.510;2023-12-20T10:30:52;34.27;;;9.10;;
26277;SDS011;14000;52.056;8.510;2023-12-20T10:33:28;36.23;;;8.23;;
26277;SDS011;14000;52.056;8.510;2023-12-20T10:35:57;35.57;;;8.43;;
26277;SDS011;14000;52.056;8.510;2023-12-20T10:38:22;28.17;;;8.47;;
26277;SDS011;14000;52.056;8.510;2023-12-20T10:40:48;34.13;;;8.33;;
26277;SDS011;14000;52.056;8.510;2023-12-20T10:43:18;28.27;;;8.13;;
26277;SDS011;14000;52.056;8.510;2023-12-20T10:45:45;28.73;;;9.30;;
26277;SDS011;14000;52.056;8.510;2023-12-20T10:48:11;29.90;;;7.63;;
26277;SDS011;14000;52.056;8.510;2023-12-20T10:50:37;31.03;;;8.03;;
26277;SDS011;14000;52.056;8.510;2023-12-20T10:53:06;33.57;;;8.03;;
26277;SDS011;14000;52.056;8.510;2023-12-20T10:55:32;27.07;;;7.00;;
26277;SDS011;14000;52.056;8.510;2023-12-20T10:58:01;34.73;;;7.53;;
26277;SDS011;14000;52.056;8.510;2023-12-20T11:00:31;30.80;;;7.53;;
26277;SDS011;14000;52.056;8.510;2023-12-20T11:03:00;29.93;;;7.57;;
26277;SDS011;14000;52.056;8.510;2023-12-20T11:06:10;25.60;;;7.00;;
26277;SDS011;14000;52.056;8.510;2023-12-20T11:08:28;31.03;;;8.87;;
26277;SDS011;14000;52.056;8.510;2023-12-20T11:11:14;27.67;;;7.50;;
26277;SDS011;14000;52.056;8.510;2023-12-20T11:13:58;34.53;;;8.43;;
26277;SDS011;14000;52.056;8.510;2023-12-20T11:16:29;26.60;;;7.80;;
26277;SDS011;14000;52.056;8.510;2023-12-20T11:18:56;36.77;;;8.47;;
26277;SDS011;14000;52.056;8.510;2023-12-20T11:21:22;29.33;;;7.53;;
26277;SDS011;14000;52.056;8.510;2023-12-20T11:23:47;31.10;;;7.67;;
26277;SDS011;14000;52.056;8.510;2023-12-20T11:26:15;26.30;;;7.77;;
26277;SDS011;14000;52.056;8.510;2023-12-20T11:28:42;29.70;;;7.50;;
26277;SDS011;14000;52.056;8.510;2023-12-20T11:31:07;29.93;;;7.67;;
26277;SDS011;14000;52.056;8.510;2023-12-20T11:33:36;25.60;;;6.90;;
26277;SDS011;14000;52.056;8.510;2023-12-20T11:36:03;24.63;;;6.47;;
26277;SDS011;14000;52.056;8.510;2023-12-20T11:38:37;22.93;;;7.63;;
26277;SDS011;14000;52.056;8.510;2023-12-20T11:41:05;29.70;;;7.30;;
26277;SDS011;14000;52.056;8.510;2023-12-20T11:46:04;25.43;;;6.40;;
26277;SDS011;14000;52.056;8.510;2023-12-20T11:48:31;22.23;;;5.93;;
26277;SDS011;14000;52.056;8.510;2023-12-20T11:50:57;26.33;;;6.97;;
26277;SDS011;14000;52.056;8.510;2023-12-20T11:53:23;24.80;;;6.20;;
26277;SDS011;14000;52.056;8.510;2023-12-20T11:55:49;22.40;;;5.90;;
26277;SDS011;14000;52.056;8.510;2023-12-20T11:58:15;25.87;;;6.00;;
26277;SDS011;14000;52.056;8.510;2023-12-20T12:00:41;18.33;;;5.57;;
26277;SDS011;14000;52.056;8.510;2023-12-20T12:03:08;20.67;;;5.20;;
26277;SDS011;14000;52.056;8.510;2023-12-20T12:05:34;21.33;;;5.30;;
26277;SDS011;14000;52.056;8.510;2023-12-20T12:08:00;25.47;;;5.13;;
26277;SDS011;14000;52.056;8.510;2023-12-20T12:10:27;15.47;;;4.47;;
26277;SDS011;14000;52.056;8.510;2023-12-20T12:12:53;26.43;;;5.00;;
26277;SDS011;14000;52.056;8.510;2023-12-20T12:15:20;17.53;;;4.83;;
26277;SDS011;14000;52.056;8.510;2023-12-20T12:17:56;17.40;;;4.13;;
26277;SDS011;14000;52.056;8.510;2023-12-20T12:20:22;21.83;;;4.50;;
26277;SDS011;14000;52.056;8.510;2023-12-20T12:23:01;17.27;;;4.50;;
26277;SDS011;14000;52.056;8.510;2023-12-20T12:25:31;19.63;;;4.03;;
26277;SDS011;14000;52.056;8.510;2023-12-20T12:27:58;18.70;;;4.90;;
26277;SDS011;14000;52.056;8.510;2023-12-20T12:30:24;19.17;;;4.23;;
26277;SDS011;14000;52.056;8.510;2023-12-20T12:32:50;19.23;;;4.00;;
26277;SDS011;14000;52.056;8.510;2023-12-20T12:35:17;20.53;;;4.67;;
26277;SDS011;14000;52.056;8.510;2023-12-20T12:37:43;21.73;;;4.53;;
26277;SDS011;14000;52.056;8.510;2023-12-20T12:40:12;21.03;;;5.13;;
26277;SDS011;14000;52.056;8.510;2023-12-20T12:42:40;24.47;;;4.30;;
26277;SDS011;14000;52.056;8.510;2023-12-20T12:45:07;26.30;;;5.40;;
26277;SDS011;14000;52.056;8.510;2023-12-20T12:47:33;20.80;;;4.83;;
26277;SDS011;14000;52.056;8.510;2023-12-20T12:49:59;23.80;;;5.20;;
26277;SDS011;14000;52.056;8.510;2023-12-20T12:52:25;25.20;;;5.30;;
26277;SDS011;14000;52.056;8.510;2023-12-20T12:54:52;28.93;;;5.20;;
26277;SDS011;14000;52.056;8.510;2023-12-20T12:57:17;24.00;;;5.83;;
26277;SDS011;14000;52.056;8.510;2023-12-20T12:59:44;23.20;;;5.93;;
26277;SDS011;14000;52.056;8.510;2023-12-20T13:02:11;24.13;;;5.93;;
26277;SDS011;14000;52.056;8.510;2023-12-20T13:04:38;32.40;;;7.43;;
26277;SDS011;14000;52.056;8.510;2023-12-20T13:07:04;19.57;;;5.53;;
26277;SDS011;14000;52.056;8.510;2023-12-20T13:09:30;26.03;;;5.93;;
26277;SDS011;14000;52.056;8.510;2023-12-20T13:11:55;28.83;;;6.83;;
26277;SDS011;14000;52.056;8.510;2023-12-20T13:14:21;20.07;;;5.07;;
26277;SDS011;14000;52.056;8.510;2023-12-20T13:16:46;10.77;;;2.83;;
26277;SDS011;14000;52.056;8.510;2023-12-20T13:19:12;12.07;;;2.57;;
26277;SDS011;14000;52.056;8.510;2023-12-20T13:21:38;9.53;;;1.87;;
26277;SDS011;14000;52.056;8.510;2023-12-20T13:24:04;9.10;;;2.13;;
26277;SDS011;14000;52.056;8.510;2023-12-20T13:26:30;11.50;;;2.57;;
26277;SDS011;14000;52.056;8.510;2023-12-20T13:28:56;12.63;;;2.30;;
26277;SDS011;14000;52.056;8.510;2023-12-20T13:31:21;10.77;;;1.63;;
26277;SDS011;14000;52.056;8.510;2023-12-20T13:33:47;15.97;;;2.47;;
26277;SDS011;14000;52.056;8.510;2023-12-20T13:36:13;14.20;;;2.53;;
26277;SDS011;14000;52.056;8.510;2023-12-20T13:38:38;13.43;;;2.37;;
26277;SDS011;14000;52.056;8.510;2023-12-20T13:41:04;11.97;;;2.10;;
26277;SDS011;14000;52.056;8.510;2023-12-20T13:43:30;15.27;;;2.70;;
26277;SDS011;14000;52.056;8.510;2023-12-20T13:45:57;9.40;;;1.80;;
26277;SDS011;14000;52.056;8.510;2023-12-20T13:48:23;15.77;;;2.30;;
26277;SDS011;14000;52.056;8.510;2023-12-20T13:50:49;14.53;;;2.23;;
26277;SDS011;14000;52.056;8.510;2023-12-20T13:53:15;14.67;;;2.30;;
26277;SDS011;14000;52.056;8.510;2023-12-20T13:55:41;14.70;;;2.47;;
26277;SDS011;14000;52.056;8.510;2023-12-20T13:58:06;15.63;;;2.60;;
26277;SDS011;14000;52.056;8.510;2023-12-20T14:00:32;10.60;;;2.00;;
26277;SDS011;14000;52.056;8.510;2023-12-20T14:02:57;9.53;;;1.93;;
26277;SDS011;14000;52.056;8.510;2023-12-20T14:05:23;10.97;;;2.03;;
26277;SDS011;14000;52.056;8.510;2023-12-20T14:07:49;14.83;;;2.73;;
26277;SDS011;14000;52.056;8.510;2023-12-20T14:10:15;11.57;;;2.00;;
26277;SDS011;14000;52.056;8.510;2023-12-20T14:12:41;11.80;;;1.83;;
26277;SDS011;14000;52.056;8.510;2023-12-20T14:15:07;17.63;;;2.37;;
26277;SDS011;14000;52.056;8.510;2023-12-20T14:17:38;11.27;;;2.30;;
26277;SDS011;14000;52.056;8.510;2023-12-20T14:20:05;14.23;;;2.10;;
26277;SDS011;14000;52.056;8.510;2023-12-20T14:22:31;15.73;;;4.03;;
26277;SDS011;14000;52.056;8.510;2023-12-20T14:24:57;15.63;;;2.10;;
26277;SDS011;14000;52.056;8.510;2023-12-20T14:27:23;12.73;;;1.93;;
26277;SDS011;14000;52.056;8.510;2023-12-20T14:29:50;16.07;;;2.70;;